PILOTS ONLINE: 314    ATC ONLINE: 46

MDPC

Punta Cana International Airport

Location

IATA PUJ
City Punta Cana
Country  Dominican Republic
Latitude 18° 34' 2" N
Longitude 68° 21' 48" W
Elevation 47 ft
Type Large Airport

Map

Weather

METAR
2014/09/30 23:00
MDPC 302300Z 20004KT 9999 FEW020 SCT300 27/24 Q1014
TAF
2014/09/30 18:23
TAF MDPC 301600Z 3018/0118 19008KT 9999 SCT025 
      BECMG 0103/0106 00000KT

Runways

09/27 10171 ft / 157 ft

Outbound flights

Callsign Flying to Pilot ATD/STD ETA Aircraft

Inbound flights

Callsign Flying from Pilot ATD ETA Aircraft
N495LM  MUHA - Havana
Cuba
Keith Rocke
1085341
21:21 23:06 TBM8